createdAt,value
2023-04-18T00:00:59.554Z,9.05
2023-04-18T00:06:01.059Z,10.30
2023-04-18T00:11:02.591Z,11.05
2023-04-18T00:16:04.272Z,10.65
2023-04-18T00:21:06.788Z,9.73
2023-04-18T00:26:08.614Z,10.75
2023-04-18T00:31:10.235Z,10.93
2023-04-18T00:36:11.825Z,11.02
2023-04-18T00:41:13.341Z,10.43
2023-04-18T00:46:14.967Z,12.40
2023-04-18T00:51:16.688Z,10.35
2023-04-18T00:56:18.232Z,9.55
2023-04-18T01:01:19.749Z,9.70
2023-04-18T01:06:21.527Z,10.15
2023-04-18T01:11:23.161Z,10.90
2023-04-18T01:16:25.106Z,10.35
2023-04-18T01:21:27.024Z,10.82
2023-04-18T01:26:29.233Z,11.10
2023-04-18T01:31:34.575Z,10.93
2023-04-18T01:36:38.361Z,12.02
2023-04-18T01:41:42.049Z,12.20
2023-04-18T01:46:44.650Z,11.30
2023-04-18T01:51:46.392Z,9.63
2023-04-18T01:56:49.018Z,12.52
2023-04-18T02:01:51.677Z,11.30
2023-04-18T02:06:53.705Z,13.95
2023-04-18T02:11:55.537Z,11.40
2023-04-18T02:17:01.284Z,14.05
2023-04-18T02:22:03.134Z,14.70
2023-04-18T02:27:06.302Z,13.55
2023-04-18T02:32:08.243Z,13.65
2023-04-18T02:37:10.140Z,14.13
2023-04-18T02:42:14.326Z,14.48
2023-04-18T02:47:16.033Z,13.88
2023-04-18T02:52:20.548Z,14.15
2023-04-18T02:57:22.448Z,14.80
2023-04-18T03:02:35.839Z,15.75
2023-04-18T03:07:51.198Z,15.32
2023-04-18T03:12:53.836Z,14.68
2023-04-18T03:17:56.975Z,16.75
2023-04-18T03:23:00.237Z,17.40
2023-04-18T03:28:04.968Z,18.65
2023-04-18T03:33:08.584Z,15.57
2023-04-18T03:38:10.251Z,15.05
2023-04-18T03:43:14.624Z,14.52
2023-04-18T03:48:16.654Z,16.58
2023-04-18T03:53:20.337Z,18.85
2023-04-18T04:03:26.024Z,18.92
2023-04-18T04:08:28.364Z,17.75
2023-04-18T04:13:30.362Z,18.17
2023-04-18T04:18:33.943Z,18.20
2023-04-18T04:23:38.286Z,16.63
2023-04-18T04:28:40.516Z,17.35
2023-04-18T04:33:42.946Z,18.98
2023-04-18T04:38:50.826Z,18.65
2023-04-18T04:43:54.726Z,18.30
2023-04-18T04:49:01.540Z,19.38
2023-04-18T04:54:03.922Z,17.85
2023-04-18T04:59:05.691Z,18.20
2023-04-18T05:04:11.499Z,17.60
2023-04-18T05:09:13.123Z,16.27
2023-04-18T05:14:15.126Z,16.30
2023-04-18T05:19:16.920Z,13.35
2023-04-18T05:24:18.670Z,11.82
2023-04-18T05:29:20.303Z,9.15
2023-04-18T05:34:21.830Z,8.45
2023-04-18T05:39:23.339Z,7.53
2023-04-18T05:44:24.924Z,9.07
2023-04-18T05:49:26.463Z,8.25
2023-04-18T05:54:27.993Z,8.98
2023-04-18T05:59:29.519Z,8.30
2023-04-18T06:04:31.247Z,8.93
2023-04-18T06:09:32.917Z,7.80
2023-04-18T06:14:34.441Z,8.02
2023-04-18T06:19:35.962Z,7.65
2023-04-18T06:24:37.457Z,7.13
2023-04-18T06:29:39.042Z,7.55
2023-04-18T06:34:40.649Z,7.78
2023-04-18T06:39:42.175Z,7.15
2023-04-18T06:44:43.743Z,7.03
2023-04-18T06:49:45.285Z,6.63
2023-04-18T06:54:46.765Z,7.15
2023-04-18T06:59:48.281Z,6.45
2023-04-18T07:04:49.798Z,6.18
2023-04-18T07:09:51.346Z,7.40
2023-04-18T07:14:53.979Z,5.90
2023-04-18T07:19:55.504Z,5.13
2023-04-18T07:24:57.015Z,5.30
2023-04-18T07:29:58.569Z,5.38
2023-04-18T07:35:00.154Z,5.15
2023-04-18T07:40:01.781Z,5.20
2023-04-18T07:45:03.646Z,5.45
2023-04-18T07:50:05.588Z,5.18
2023-04-18T07:55:07.556Z,5.53
2023-04-18T08:00:09.789Z,5.60
2023-04-18T08:05:19.496Z,5.47
2023-04-18T08:10:23.256Z,5.20
2023-04-18T08:15:25.410Z,4.70
2023-04-18T08:20:27.203Z,5.03
2023-04-18T08:25:28.978Z,5.07
2023-04-18T08:30:30.562Z,5.20
2023-04-18T08:35:32.130Z,5.28
2023-04-18T08:40:33.873Z,4.78
2023-04-18T08:45:35.535Z,4.93
2023-04-18T08:50:37.070Z,5.35
2023-04-18T08:55:38.619Z,5.32
2023-04-18T09:00:40.152Z,5.72
2023-04-18T09:05:41.772Z,5.75
2023-04-18T09:10:44.810Z,5.72
2023-04-18T09:15:54.930Z,5.57
2023-04-18T09:20:56.541Z,5.75
2023-04-18T09:25:58.124Z,4.97
2023-04-18T09:31:11.228Z,5.65
2023-04-18T09:36:24.890Z,4.85
2023-04-18T09:41:26.467Z,5.13
2023-04-18T09:46:28.418Z,5.28
2023-04-18T09:51:31.644Z,4.20
2023-04-18T09:56:36.465Z,4.55
2023-04-18T10:01:39.018Z,4.00
2023-04-18T10:06:41.148Z,5.25
2023-04-18T10:11:43.733Z,4.75
2023-04-18T10:16:45.413Z,4.80
2023-04-18T10:22:01.061Z,4.80
2023-04-18T10:27:02.662Z,4.27
2023-04-18T10:32:06.250Z,5.00
2023-04-18T10:37:07.848Z,4.07
2023-04-18T10:42:09.413Z,5.20
2023-04-18T10:47:29.000Z,5.05
2023-04-18T10:52:31.148Z,5.32
2023-04-18T10:57:40.366Z,5.55
2023-04-18T11:02:49.258Z,4.72
2023-04-18T11:07:51.208Z,4.78
2023-04-18T11:12:55.337Z,4.70
2023-04-18T11:18:00.383Z,5.47
2023-04-18T11:23:01.976Z,3.67
2023-04-18T11:28:04.504Z,4.38
2023-04-18T11:33:07.984Z,4.45
2023-04-18T11:38:12.730Z,4.85
2023-04-18T11:48:22.648Z,5.00
2023-04-18T11:53:38.023Z,4.03
2023-04-18T11:58:39.786Z,4.40
2023-04-18T12:03:41.599Z,4.55
2023-04-18T12:08:43.310Z,4.18
2023-04-18T12:13:45.998Z,4.43
2023-04-18T12:18:47.553Z,4.65
2023-04-18T12:23:49.068Z,5.20
2023-04-18T12:28:51.343Z,4.43
2023-04-18T12:33:52.910Z,3.92
2023-04-18T12:38:54.477Z,4.82
2023-04-18T12:43:56.043Z,3.95
2023-04-18T12:48:57.564Z,4.07
2023-04-18T12:53:59.185Z,3.97
2023-04-18T12:59:00.719Z,3.67
2023-04-18T13:04:11.814Z,3.97
2023-04-18T13:09:14.962Z,4.50
2023-04-18T13:14:16.756Z,4.10
2023-04-18T13:19:18.269Z,4.25
2023-04-18T13:24:19.772Z,3.78
2023-04-18T13:29:21.292Z,4.72
2023-04-18T13:34:22.806Z,5.72
2023-04-18T13:39:24.390Z,5.07
2023-04-18T13:44:25.889Z,5.07
2023-04-18T13:49:27.894Z,5.88
2023-04-18T13:54:31.091Z,5.20
2023-04-18T13:59:33.425Z,5.65
2023-04-18T14:04:35.785Z,5.05
2023-04-18T14:09:37.418Z,5.07
2023-04-18T14:14:39.063Z,6.43
2023-04-18T14:19:40.578Z,5.68
2023-04-18T14:24:42.210Z,5.13
2023-04-18T14:29:43.718Z,5.32
2023-04-18T14:34:45.275Z,5.32
2023-04-18T14:39:46.788Z,5.68
2023-04-18T14:44:48.299Z,6.15
2023-04-18T14:49:49.801Z,7.03
2023-04-18T14:54:51.369Z,7.18
2023-04-18T14:59:53.007Z,5.93
2023-04-18T15:04:54.590Z,5.68
2023-04-18T15:09:56.169Z,6.53
2023-04-18T15:14:59.676Z,5.93
2023-04-18T15:20:01.227Z,6.75
2023-04-18T15:25:03.627Z,5.55
2023-04-18T15:30:05.882Z,5.25
2023-04-18T15:35:08.871Z,4.72
2023-04-18T15:40:10.817Z,5.70
2023-04-18T15:45:12.513Z,4.93
2023-04-18T15:50:14.136Z,6.22
2023-04-18T15:55:15.669Z,4.55
2023-04-18T16:00:17.715Z,4.97
2023-04-18T16:05:19.264Z,5.07
2023-04-18T16:10:20.826Z,4.85
2023-04-18T16:15:22.418Z,3.92
2023-04-18T16:20:24.174Z,4.40
2023-04-18T16:25:25.982Z,4.53
2023-04-18T16:30:27.521Z,4.20
2023-04-18T16:35:29.251Z,4.88
2023-04-18T16:40:30.787Z,4.57
2023-04-18T16:45:32.900Z,4.15
2023-04-18T16:50:34.405Z,4.47
2023-04-18T16:55:35.919Z,4.82
2023-04-18T17:00:38.495Z,4.43
2023-04-18T17:05:40.351Z,4.70
2023-04-18T17:10:41.918Z,4.10
2023-04-18T17:15:43.430Z,4.00
2023-04-18T17:20:45.033Z,3.97
2023-04-18T17:25:46.558Z,4.88
2023-04-18T17:30:48.068Z,3.88
2023-04-18T17:35:49.633Z,3.00
2023-04-18T17:41:09.000Z,3.67
2023-04-18T17:46:10.684Z,3.40
2023-04-18T17:51:12.372Z,3.72
2023-04-18T17:56:14.059Z,3.83
2023-04-18T18:01:17.468Z,4.00
2023-04-18T18:06:19.039Z,4.20
2023-04-18T18:11:20.538Z,4.80
2023-04-18T18:16:22.242Z,3.50
2023-04-18T18:21:23.823Z,4.05
2023-04-18T18:26:25.382Z,4.05
2023-04-18T18:31:26.951Z,4.57
2023-04-18T18:36:28.637Z,4.13
2023-04-18T18:41:30.231Z,4.13
2023-04-18T18:46:31.795Z,5.28
2023-04-18T18:51:33.340Z,4.40
2023-04-18T18:56:34.924Z,5.60
2023-04-18T19:01:36.608Z,6.68
2023-04-18T19:06:38.383Z,4.97
2023-04-18T19:11:39.929Z,4.70
2023-04-18T19:16:41.585Z,5.20
2023-04-18T19:21:43.610Z,4.93
2023-04-18T19:26:45.116Z,4.50
2023-04-18T19:31:46.754Z,5.93
2023-04-18T19:36:48.504Z,5.32
2023-04-18T19:41:50.084Z,4.95
2023-04-18T19:46:51.702Z,4.57
2023-04-18T19:51:53.368Z,6.13
2023-04-18T19:56:55.654Z,4.57
2023-04-18T20:01:59.489Z,6.82
2023-04-18T20:07:03.326Z,6.40
2023-04-18T20:12:05.074Z,6.68
2023-04-18T20:17:06.838Z,6.97
2023-04-18T20:22:08.528Z,6.07
2023-04-18T20:27:10.658Z,4.78
2023-04-18T20:32:12.514Z,4.47
2023-04-18T20:37:14.107Z,5.10
2023-04-18T20:42:15.798Z,4.60
2023-04-18T20:47:17.426Z,5.28
2023-04-18T20:52:19.005Z,5.03
2023-04-18T20:57:20.525Z,5.45
2023-04-18T21:02:22.149Z,5.25
2023-04-18T21:07:23.803Z,4.85
2023-04-18T21:12:25.413Z,5.30
2023-04-18T21:17:27.010Z,4.78
2023-04-18T21:22:28.538Z,5.10
2023-04-18T21:27:30.331Z,5.53
2023-04-18T21:32:31.911Z,5.68
2023-04-18T21:37:33.592Z,5.10
2023-04-18T21:42:35.809Z,5.57
2023-04-18T21:47:37.380Z,5.20
2023-04-18T21:52:38.871Z,5.30
2023-04-18T21:57:40.501Z,5.07
2023-04-18T22:02:42.141Z,6.05
2023-04-18T22:07:56.943Z,5.43
2023-04-18T22:12:59.448Z,5.00
2023-04-18T22:18:01.014Z,5.13
2023-04-18T22:23:03.001Z,5.65
2023-04-18T22:28:04.878Z,4.95
2023-04-18T22:33:06.488Z,5.10
2023-04-18T22:38:08.165Z,4.90
2023-04-18T22:43:09.724Z,5.10
2023-04-18T22:48:11.406Z,4.75
2023-04-18T22:53:13.464Z,4.07
2023-04-18T22:58:15.101Z,3.50
2023-04-18T23:03:16.857Z,4.10
2023-04-18T23:08:18.474Z,4.18
2023-04-18T23:13:20.131Z,4.22
2023-04-18T23:18:21.675Z,4.30
2023-04-18T23:23:23.248Z,4.68
2023-04-18T23:28:24.900Z,4.45
2023-04-18T23:33:26.441Z,5.32
2023-04-18T23:38:28.066Z,4.75
2023-04-18T23:43:29.662Z,5.03
2023-04-18T23:48:31.251Z,5.30
2023-04-18T23:53:32.904Z,4.78
2023-04-18T23:58:34.500Z,4.30
